Time;durP1;ratioP1;P1;durP2;ratioP2;P2;SDS_P1;SDS_P2;PMS_P1;PMS_P2;Temp;Humidity;BMP_temperature;BMP_pressure;BME280_temperature;BME280_humidity;BME280_pressure;Samples;Min_cycle;Max_cycle;Signal;HPM_P1;HPM_P2
2022/01/01 00:00:09;;;;;;;;;;;;;;;;;;5075576;28;20004;-84
2022/01/01 00:02:36;;;;;;;;;;;;;;;;;;5075093;28;19963;-83
2022/01/01 00:05:03;;;;;;;;;;;;;;;;;;5074602;28;20056;-84
2022/01/01 00:07:30;;;;;;;;;;;;;;;;;;5074662;28;20033;-84
2022/01/01 00:09:57;;;;;;;;;;;;;;;;;;5075819;28;19990;-84
2022/01/01 00:12:24;;;;;;;;;;;;;;;;;;5074053;28;20048;-84
2022/01/01 00:14:51;;;;;;;;;;;;;;;;;;5073655;28;20019;-84
2022/01/01 00:17:18;;;;;;;;;;;;;;;;;;5073708;28;20008;-84
2022/01/01 00:19:45;;;;;;;;;;;;;;;;;;5074560;28;20013;-84
2022/01/01 00:22:12;;;;;;;;;;;;;;;;;;5074773;28;20046;-84
2022/01/01 00:24:39;;;;;;;;;;;;;;;;;;5075279;28;19991;-83
2022/01/01 00:27:06;;;;;;;;;;;;;;;;;;5075335;28;20055;-84
2022/01/01 00:29:33;;;;;;;;;;;;;;;;;;5075287;28;20407;-84
2022/01/01 00:32:00;;;;;;;;;;;;;;;;;;5075423;28;20052;-84
2022/01/01 00:34:27;;;;;;;;;;;;;;;;;;5075064;28;20005;-84
2022/01/01 00:36:54;;;;;;;;;;;;;;;;;;5074992;28;20015;-84
2022/01/01 00:39:21;;;;;;;;;;;;;;;;;;5075101;28;20411;-84
2022/01/01 00:41:48;;;;;;;;;;;;;;;;;;5075258;28;19997;-84
2022/01/01 00:44:15;;;;;;;;;;;;;;;;;;5075160;28;20008;-84
2022/01/01 00:46:42;;;;;;;;;;;;;;;;;;5075461;28;20362;-84
2022/01/01 00:49:09;;;;;;;;;;;;;;;;;;5074634;28;20073;-84
2022/01/01 00:51:36;;;;;;;;;;;;;;;;;;5074971;28;20194;-84
2022/01/01 00:54:06;;;;;;;;;;;;;;;;;;5074758;28;20466;-84
2022/01/01 00:56:33;;;;;;;;;;;;;;;;;;5074962;28;20029;-84
2022/01/01 00:59:00;;;;;;;;;;;;;;;;;;5074977;28;20056;-84
2022/01/01 01:01:27;;;;;;;;;;;;;;;;;;5074688;28;20391;-84
2022/01/01 01:03:54;;;;;;;;;;;;;;;;;;5074577;28;19998;-84
2022/01/01 01:06:20;;;;;;;;;;;;;;;;;;5074556;28;20019;-84
2022/01/01 01:08:47;;;;;;;;;;;;;;;;;;5074847;28;20380;-85
2022/01/01 01:11:14;;;;;;;;;;;;;;;;;;5074717;28;20017;-85
2022/01/01 01:13:44;;;;;;;;;;;;;;;;;;5074388;28;20389;-84
2022/01/01 01:16:11;;;;;;;;;;;;;;;;;;5074461;28;19985;-84
2022/01/01 01:18:38;;;;;;;;;;;;;;;;;;5074377;28;20464;-84
2022/01/01 01:21:06;;;;;;;;;;;;;;;;;;5074131;28;20372;-84
2022/01/01 01:23:34;;;;;;;;;;;;;;;;;;5074161;28;19961;-84
2022/01/01 01:26:01;;;;;;;;;;;;;;;;;;5074420;28;19960;-84
2022/01/01 01:28:28;;;;;;;;;;;;;;;;;;5074072;28;20009;-84
2022/01/01 01:30:55;;;;;;;;;;;;;;;;;;5074100;28;20023;-84
2022/01/01 01:33:22;;;;;;;;;;;;;;;;;;5074006;28;20074;-85
2022/01/01 01:35:49;;;;;;;;;;;;;;;;;;5074173;28;20022;-84
2022/01/01 01:38:16;;;;;;;;;;;;;;;;;;5074110;28;20002;-84
2022/01/01 01:40:43;;;;;;;;;;;;;;;;;;5074023;28;20004;-84
2022/01/01 01:43:12;;;;;;;;;;;;;;;;;;5073894;28;19968;-84
2022/01/01 01:45:39;;;;;;;;;;;;;;;;;;5073822;28;19967;-84
2022/01/01 01:48:06;;;;;;;;;;;;;;;;;;5073823;28;20017;-84
2022/01/01 01:50:37;;;;;;;;;;;;;;;;;;5073486;28;20328;-84
2022/01/01 01:53:04;;;;;;;;;;;;;;;;;;5073863;28;19961;-84
2022/01/01 01:55:31;;;;;;;;;;;;;;;;;;5073771;28;20520;-84
2022/01/01 01:57:58;;;;;;;;;;;;;;;;;;5073666;28;20004;-84
2022/01/01 02:03:10;;;;;;;;;;;;;;;;;;5073413;28;19953;-84
2022/01/01 02:05:37;;;;;;;;;;;;;;;;;;5073669;28;20291;-84
2022/01/01 02:08:04;;;;;;;;;;;;;;;;;;5073855;28;19997;-84
2022/01/01 02:10:31;;;;;;;;;;;;;;;;;;5073674;28;20130;-84
2022/01/01 02:12:58;;;;;;;;;;;;;;;;;;5073736;28;20010;-84
2022/01/01 02:15:37;;;;;;;;;;;;;;;;;;5073561;28;19970;-84
2022/01/01 02:18:04;;;;;;;;;;;;;;;;;;5073520;28;20330;-84
2022/01/01 02:20:31;;;;;;;;;;;;;;;;;;5073591;28;20043;-84
2022/01/01 02:23:00;;;;;;;;;;;;;;;;;;5073550;28;20002;-84
2022/01/01 02:25:27;;;;;;;;;;;;;;;;;;5073813;28;19959;-84
2022/01/01 02:27:54;;;;;;;;;;;;;;;;;;5073409;28;19962;-84
2022/01/01 02:30:21;;;;;;;;;;;;;;;;;;5073612;28;20002;-84
2022/01/01 02:32:48;;;;;;;;;;;;;;;;;;5073463;28;20089;-84
2022/01/01 02:35:15;;;;;;;;;;;;;;;;;;5073287;28;19997;-84
2022/01/01 02:37:42;;;;;;;;;;;;;;;;;;5073282;28;20426;-84
2022/01/01 02:40:09;;;;;;;;;;;;;;;;;;5073521;28;20013;-84
2022/01/01 02:42:36;;;;;;;;;;;;;;;;;;5073239;28;20387;-84
2022/01/01 02:45:07;;;;;;;;;;;;;;;;;;5073310;28;20081;-83
2022/01/01 02:47:34;;;;;;;;;;;;;;;;;;5073138;28;19980;-84
2022/01/01 02:50:01;;;;;;;;;;;;;;;;;;5073170;28;20600;-84
2022/01/01 02:52:28;;;;;;;;;;;;;;;;;;5073472;28;20003;-84
2022/01/01 02:54:55;;;;;;;;;;;;;;;;;;5073356;28;20404;-84
2022/01/01 02:57:22;;;;;;;;;;;;;;;;;;5073212;28;20042;-84
2022/01/01 02:59:49;;;;;;;;;;;;;;;;;;5073161;28;20048;-84
2022/01/01 03:02:16;;;;;;;;;;;;;;;;;;5073104;28;20380;-85
2022/01/01 03:04:43;;;;;;;;;;;;;;;;;;5073128;28;20064;-84
2022/01/01 03:07:10;;;;;;;;;;;;;;;;;;5072965;28;20409;-84
2022/01/01 03:09:37;;;;;;;;;;;;;;;;;;5073245;28;20008;-84
2022/01/01 03:12:04;;;;;;;;;;;;;;;;;;5073049;28;20044;-84
2022/01/01 03:14:31;;;;;;;;;;;;;;;;;;5073364;28;19958;-84
2022/01/01 03:16:58;;;;;;;;;;;;;;;;;;5076825;28;20405;-84
2022/01/01 03:19:25;;;;;;;;;;;;;;;;;;5076993;28;20058;-84
2022/01/01 03:21:52;;;;;;;;;;;;;;;;;;5076758;28;20063;-84
2022/01/01 03:24:19;;;;;;;;;;;;;;;;;;5076559;28;20392;-85
2022/01/01 03:26:46;;;;;;;;;;;;;;;;;;5076646;28;20047;-84
2022/01/01 03:29:13;;;;;;;;;;;;;;;;;;5076451;28;20055;-84
2022/01/01 03:31:40;;;;;;;;;;;;;;;;;;5076580;28;20451;-84
2022/01/01 03:34:07;;;;;;;;;;;;;;;;;;5076333;28;19969;-84
2022/01/01 03:36:34;;;;;;;;;;;;;;;;;;5076445;28;20452;-84
2022/01/01 03:39:01;;;;;;;;;;;;;;;;;;5076305;28;19957;-84
2022/01/01 03:41:28;;;;;;;;;;;;;;;;;;5076145;28;19960;-84
2022/01/01 03:43:55;;;;;;;;;;;;;;;;;;5076297;28;19995;-84
2022/01/01 03:46:22;;;;;;;;;;;;;;;;;;5076310;28;20021;-84
2022/01/01 03:48:49;;;;;;;;;;;;;;;;;;5076187;28;20060;-84
2022/01/01 03:51:16;;;;;;;;;;;;;;;;;;5076131;28;20454;-84
2022/01/01 03:53:43;;;;;;;;;;;;;;;;;;5076081;28;20001;-84
2022/01/01 03:56:11;;;;;;;;;;;;;;;;;;5075986;28;20527;-84
2022/01/01 03:58:38;;;;;;;;;;;;;;;;;;5076063;28;20409;-84
2022/01/01 04:01:05;;;;;;;;;;;;;;;;;;5075903;28;20010;-85
2022/01/01 04:03:32;;;;;;;;;;;;;;;;;;5076148;28;20002;-84
2022/01/01 04:05:59;;;;;;;;;;;;;;;;;;5075791;28;20397;-84
2022/01/01 04:08:28;;;;;;;;;;;;;;;;;;5075852;28;19995;-84
2022/01/01 04:10:55;;;;;;;;;;;;;;;;;;5075916;28;19977;-85
2022/01/01 04:13:22;;;;;;;;;;;;;;;;;;5075594;28;19998;-84
2022/01/01 04:15:49;;;;;;;;;;;;;;;;;;5075575;28;20076;-84
2022/01/01 04:18:27;;;;;;;;;;;;;;;;;;5075032;28;20407;-84
2022/01/01 04:20:54;;;;;;;;;;;;;;;;;;5075578;28;19975;-84
2022/01/01 04:23:23;;;;;;;;;;;;;;;;;;5075490;28;20448;-84
2022/01/01 04:25:50;;;;;;;;;;;;;;;;;;5074882;28;20053;-84
2022/01/01 04:28:17;;;;;;;;;;;;;;;;;;5075626;28;19998;-84
2022/01/01 04:30:44;;;;;;;;;;;;;;;;;;5075405;28;20002;-85
2022/01/01 04:33:11;;;;;;;;;;;;;;;;;;5075505;28;19954;-84
2022/01/01 04:35:38;;;;;;;;;;;;;;;;;;5075146;28;20466;-84
2022/01/01 04:38:10;;;;;;;;;;;;;;;;;;5075152;28;19993;-84
2022/01/01 04:40:38;;;;;;;;;;;;;;;;;;5075111;28;20017;-84
2022/01/01 04:43:05;;;;;;;;;;;;;;;;;;5075040;28;20066;-84
2022/01/01 04:45:32;;;;;;;;;;;;;;;;;;5075420;28;20023;-84
2022/01/01 04:47:59;;;;;;;;;;;;;;;;;;5074977;28;20063;-84
2022/01/01 04:50:26;;;;;;;;;;;;;;;;;;5074848;28;20405;-84
2022/01/01 04:52:55;;;;;;;;;;;;;;;;;;5074867;28;20059;-84
2022/01/01 04:55:23;;;;;;;;;;;;;;;;;;5074858;28;19961;-84
2022/01/01 04:57:50;;;;;;;;;;;;;;;;;;5074662;28;20061;-84
2022/01/01 05:00:17;;;;;;;;;;;;;;;;;;5075028;28;19994;-85
2022/01/01 05:02:44;;;;;;;;;;;;;;;;;;5074608;28;20012;-85
2022/01/01 05:05:11;;;;;;;;;;;;;;;;;;5074677;28;19955;-84
2022/01/01 05:07:38;;;;;;;;;;;;;;;;;;5074507;28;19966;-84
2022/01/01 05:10:05;;;;;;;;;;;;;;;;;;5074523;28;20017;-84
2022/01/01 05:12:32;;;;;;;;;;;;;;;;;;5074700;28;20004;-84
2022/01/01 05:14:59;;;;;;;;;;;;;;;;;;5074473;28;19959;-84
2022/01/01 05:17:26;;;;;;;;;;;;;;;;;;5074465;28;20166;-84
2022/01/01 05:19:53;;;;;;;;;;;;;;;;;;5074422;28;20060;-84
2022/01/01 05:22:20;;;;;;;;;;;;;;;;;;5074273;28;20420;-84
2022/01/01 05:24:47;;;;;;;;;;;;;;;;;;5074411;28;20054;-84
2022/01/01 05:27:14;;;;;;;;;;;;;;;;;;5074368;28;19961;-84
2022/01/01 05:29:41;;;;;;;;;;;;;;;;;;5074208;28;19967;-84
2022/01/01 05:32:08;;;;;;;;;;;;;;;;;;5074247;28;20395;-84
2022/01/01 05:34:35;;;;;;;;;;;;;;;;;;5074136;28;20056;-84
2022/01/01 05:37:02;;;;;;;;;;;;;;;;;;5073652;28;20081;-84
2022/01/01 05:39:29;;;;;;;;;;;;;;;;;;5073688;28;20063;-84
2022/01/01 05:41:56;;;;;;;;;;;;;;;;;;5074110;28;19992;-84
2022/01/01 05:44:23;;;;;;;;;;;;;;;;;;5073950;28;20001;-83
2022/01/01 05:46:52;;;;;;;;;;;;;;;;;;5074228;28;19964;-84
2022/01/01 05:49:19;;;;;;;;;;;;;;;;;;5073665;28;19980;-84
2022/01/01 05:51:46;;;;;;;;;;;;;;;;;;5073844;28;20050;-84
2022/01/01 05:54:13;;;;;;;;;;;;;;;;;;5074117;28;20050;-83
2022/01/01 05:56:40;;;;;;;;;;;;;;;;;;5073823;28;19973;-84
2022/01/01 05:59:07;;;;;;;;;;;;;;;;;;5074131;28;20053;-84
2022/01/01 06:01:34;;;;;;;;;;;;;;;;;;5073698;28;20078;-83
2022/01/01 06:04:01;;;;;;;;;;;;;;;;;;5073714;28;20052;-84
2022/01/01 06:06:28;;;;;;;;;;;;;;;;;;5073618;28;20039;-84
2022/01/01 06:08:55;;;;;;;;;;;;;;;;;;5073563;28;20482;-84
2022/01/01 06:11:22;;;;;;;;;;;;;;;;;;5073696;28;20008;-84
2022/01/01 06:13:49;;;;;;;;;;;;;;;;;;5073465;28;19997;-84
2022/01/01 06:16:16;;;;;;;;;;;;;;;;;;5073431;28;20388;-84
2022/01/01 06:18:43;;;;;;;;;;;;;;;;;;5073524;28;19995;-84
2022/01/01 06:21:10;;;;;;;;;;;;;;;;;;5073207;28;20046;-84
2022/01/01 06:23:39;;;;;;;;;;;;;;;;;;5073517;28;20041;-84
2022/01/01 06:26:06;;;;;;;;;;;;;;;;;;5073230;28;20395;-84
2022/01/01 06:28:33;;;;;;;;;;;;;;;;;;5073287;28;19959;-84
2022/01/01 06:31:00;;;;;;;;;;;;;;;;;;5073113;28;20056;-84
2022/01/01 06:33:27;;;;;;;;;;;;;;;;;;5073419;28;19998;-84
2022/01/01 06:35:54;;;;;;;;;;;;;;;;;;5073321;28;20051;-84
2022/01/01 06:38:21;;;;;;;;;;;;;;;;;;5072995;28;20074;-84
2022/01/01 06:40:48;;;;;;;;;;;;;;;;;;5073091;28;20380;-84
2022/01/01 06:43:16;;;;;;;;;;;;;;;;;;5073086;28;20007;-84
2022/01/01 06:45:43;;;;;;;;;;;;;;;;;;5073073;28;19961;-84
2022/01/01 06:48:10;;;;;;;;;;;;;;;;;;5072932;28;20071;-84
2022/01/01 06:50:37;;;;;;;;;;;;;;;;;;5076803;28;20056;-83
2022/01/01 06:53:04;;;;;;;;;;;;;;;;;;5077124;28;19963;-84
2022/01/01 06:55:31;;;;;;;;;;;;;;;;;;5077004;28;20477;-84
2022/01/01 06:57:58;;;;;;;;;;;;;;;;;;5076969;28;20065;-84
2022/01/01 07:00:25;;;;;;;;;;;;;;;;;;5077074;28;20317;-84
2022/01/01 07:02:52;;;;;;;;;;;;;;;;;;5077146;28;20003;-84
2022/01/01 07:05:19;;;;;;;;;;;;;;;;;;5077188;28;20409;-83
2022/01/01 07:07:46;;;;;;;;;;;;;;;;;;5077003;28;20046;-84
2022/01/01 07:10:13;;;;;;;;;;;;;;;;;;5076821;28;19959;-83
2022/01/01 07:12:40;;;;;;;;;;;;;;;;;;5076332;28;19961;-84
2022/01/01 07:15:07;;;;;;;;;;;;;;;;;;5076566;28;20050;-84
2022/01/01 07:17:34;;;;;;;;;;;;;;;;;;5076749;28;20376;-83
2022/01/01 07:20:01;;;;;;;;;;;;;;;;;;5076790;28;20044;-83
2022/01/01 07:22:28;;;;;;;;;;;;;;;;;;5076573;28;20054;-84
2022/01/01 07:24:55;;;;;;;;;;;;;;;;;;5076418;28;20019;-84
2022/01/01 07:27:23;;;;;;;;;;;;;;;;;;5076641;28;19995;-83
2022/01/01 07:29:50;;;;;;;;;;;;;;;;;;5076847;28;20005;-84
2022/01/01 07:32:17;;;;;;;;;;;;;;;;;;5076342;28;19964;-84
2022/01/01 07:34:44;;;;;;;;;;;;;;;;;;5076305;28;20482;-84
2022/01/01 07:37:11;;;;;;;;;;;;;;;;;;5076485;28;20059;-83
2022/01/01 07:39:38;;;;;;;;;;;;;;;;;;5076301;28;20053;-83
2022/01/01 07:42:05;;;;;;;;;;;;;;;;;;5076616;28;20061;-83
2022/01/01 07:44:32;;;;;;;;;;;;;;;;;;5076347;28;20494;-84
2022/01/01 07:47:00;;;;;;;;;;;;;;;;;;5076298;28;20016;-83
2022/01/01 07:49:27;;;;;;;;;;;;;;;;;;5075945;28;20387;-83
2022/01/01 07:51:54;;;;;;;;;;;;;;;;;;5076159;28;20005;-83
2022/01/01 07:54:21;;;;;;;;;;;;;;;;;;5075917;28;20051;-83
2022/01/01 07:56:48;;;;;;;;;;;;;;;;;;5075995;28;20039;-83
2022/01/01 07:59:15;;;;;;;;;;;;;;;;;;5076061;28;19956;-83
2022/01/01 08:01:43;;;;;;;;;;;;;;;;;;5075254;28;20053;-83
2022/01/01 08:04:10;;;;;;;;;;;;;;;;;;5075894;28;19964;-83
2022/01/01 08:06:37;;;;;;;;;;;;;;;;;;5075990;28;20483;-83
2022/01/01 08:09:04;;;;;;;;;;;;;;;;;;5075793;28;20000;-83
2022/01/01 08:11:31;;;;;;;;;;;;;;;;;;5075231;28;20066;-84
2022/01/01 08:13:58;;;;;;;;;;;;;;;;;;5075848;28;19965;-83
2022/01/01 08:16:25;;;;;;;;;;;;;;;;;;5075653;28;20008;-83
2022/01/01 08:18:52;;;;;;;;;;;;;;;;;;5075616;28;19968;-83
2022/01/01 08:21:19;;;;;;;;;;;;;;;;;;5075521;28;20016;-83
2022/01/01 08:23:46;;;;;;;;;;;;;;;;;;5075692;28;19957;-84
2022/01/01 08:26:13;;;;;;;;;;;;;;;;;;5075704;28;19999;-84
2022/01/01 08:28:41;;;;;;;;;;;;;;;;;;5075399;28;20463;-84
2022/01/01 08:31:08;;;;;;;;;;;;;;;;;;5075804;28;19995;-83
2022/01/01 08:33:35;;;;;;;;;;;;;;;;;;5075391;28;20014;-84
2022/01/01 08:36:03;;;;;;;;;;;;;;;;;;5075206;28;19996;-83
2022/01/01 08:38:30;;;;;;;;;;;;;;;;;;5075407;28;20011;-83
2022/01/01 08:40:57;;;;;;;;;;;;;;;;;;5075167;28;20491;-83
2022/01/01 08:43:25;;;;;;;;;;;;;;;;;;5075375;28;20052;-84
2022/01/01 08:45:53;;;;;;;;;;;;;;;;;;5075153;28;19960;-84
2022/01/01 08:48:20;;;;;;;;;;;;;;;;;;5074587;28;20337;-84
2022/01/01 08:50:47;;;;;;;;;;;;;;;;;;5075134;28;19969;-83
2022/01/01 08:53:14;;;;;;;;;;;;;;;;;;5075180;28;19960;-84
2022/01/01 08:55:41;;;;;;;;;;;;;;;;;;5074952;28;20041;-84
2022/01/01 08:58:08;;;;;;;;;;;;;;;;;;5074658;28;20489;-84
2022/01/01 09:00:35;;;;;;;;;;;;;;;;;;5074764;28;20064;-83
2022/01/01 09:03:02;;;;;;;;;;;;;;;;;;5074697;28;19964;-83
2022/01/01 09:05:29;;;;;;;;;;;;;;;;;;5074519;28;20440;-84
2022/01/01 09:07:56;;;;;;;;;;;;;;;;;;5074779;28;20007;-83
2022/01/01 09:10:23;;;;;;;;;;;;;;;;;;5074326;28;20487;-83
2022/01/01 09:12:50;;;;;;;;;;;;;;;;;;5074464;28;20081;-83
2022/01/01 09:15:17;;;;;;;;;;;;;;;;;;5074501;28;19999;-83
2022/01/01 09:17:44;;;;;;;;;;;;;;;;;;5074109;28;19972;-83
2022/01/01 09:20:11;;;;;;;;;;;;;;;;;;5074138;28;20421;-83
2022/01/01 09:22:38;;;;;;;;;;;;;;;;;;5074164;28;19967;-84
2022/01/01 09:25:05;;;;;;;;;;;;;;;;;;5074223;28;20006;-83
2022/01/01 09:27:32;;;;;;;;;;;;;;;;;;5074022;28;20012;-83
2022/01/01 09:29:59;;;;;;;;;;;;;;;;;;5073922;28;20052;-84
2022/01/01 09:32:26;;;;;;;;;;;;;;;;;;5074104;28;19994;-84
2022/01/01 09:34:53;;;;;;;;;;;;;;;;;;5074265;28;19994;-84
2022/01/01 09:37:20;;;;;;;;;;;;;;;;;;5073945;28;20020;-84
2022/01/01 09:39:47;;;;;;;;;;;;;;;;;;5073868;28;20013;-85
2022/01/01 09:42:14;;;;;;;;;;;;;;;;;;5073912;28;19958;-84
2022/01/01 09:44:41;;;;;;;;;;;;;;;;;;5073836;28;20027;-83
2022/01/01 09:47:08;;;;;;;;;;;;;;;;;;5073364;28;20428;-84
2022/01/01 09:49:35;;;;;;;;;;;;;;;;;;5064859;28;20010;-84
2022/01/01 09:52:02;;;;;;;;;;;;;;;;;;5069999;28;20046;-84
2022/01/01 09:54:31;;;;;;;;;;;;;;;;;;5074113;28;19995;-83
2022/01/01 09:56:58;;;;;;;;;;;;;;;;;;5073974;28;20035;-83
2022/01/01 09:59:25;;;;;;;;;;;;;;;;;;5074042;28;19964;-84
2022/01/01 10:01:52;;;;;;;;;;;;;;;;;;5073928;28;19985;-83
2022/01/01 10:04:19;;;;;;;;;;;;;;;;;;5073078;28;20072;-84
2022/01/01 10:06:47;;;;;;;;;;;;;;;;;;5073492;28;19960;-84
2022/01/01 10:09:14;;;;;;;;;;;;;;;;;;5073923;28;20011;-84
2022/01/01 10:11:41;;;;;;;;;;;;;;;;;;5073624;28;20022;-84
2022/01/01 10:14:08;;;;;;;;;;;;;;;;;;5073860;28;20053;-85
2022/01/01 10:16:35;;;;;;;;;;;;;;;;;;5073407;28;19967;-85
2022/01/01 10:19:02;;;;;;;;;;;;;;;;;;5073572;28;20067;-84
2022/01/01 10:21:34;;;;;;;;;;;;;;;;;;5073803;28;19999;-84
2022/01/01 10:24:01;;;;;;;;;;;;;;;;;;5073251;28;19968;-85
2022/01/01 10:29:13;;;;;;;;;;;;;;;;;;5073483;28;19983;-84
2022/01/01 10:31:40;;;;;;;;;;;;;;;;;;5074067;28;19998;-84
2022/01/01 10:34:07;;;;;;;;;;;;;;;;;;5073678;28;20061;-85
2022/01/01 10:36:34;;;;;;;;;;;;;;;;;;5073574;28;19960;-84
2022/01/01 10:39:04;;;;;;;;;;;;;;;;;;5073539;28;19973;-84
2022/01/01 10:41:31;;;;;;;;;;;;;;;;;;5073747;28;19966;-84
2022/01/01 10:43:58;;;;;;;;;;;;;;;;;;5073977;28;19962;-84
2022/01/01 10:46:25;;;;;;;;;;;;;;;;;;5073575;28;19965;-84
2022/01/01 10:48:58;;;;;;;;;;;;;;;;;;5072856;28;20063;-84
2022/01/01 10:51:25;;;;;;;;;;;;;;;;;;5073291;28;20384;-84
2022/01/01 10:53:52;;;;;;;;;;;;;;;;;;5073314;28;19964;-85
2022/01/01 10:56:19;;;;;;;;;;;;;;;;;;5073116;28;20473;-84
2022/01/01 10:58:46;;;;;;;;;;;;;;;;;;5073240;28;20070;-85
2022/01/01 11:01:13;;;;;;;;;;;;;;;;;;5073898;28;20056;-85
2022/01/01 11:03:40;;;;;;;;;;;;;;;;;;5073279;28;20455;-85
2022/01/01 11:06:08;;;;;;;;;;;;;;;;;;5072566;28;19961;-85
2022/01/01 11:08:35;;;;;;;;;;;;;;;;;;5073100;28;19984;-84
2022/01/01 11:11:02;;;;;;;;;;;;;;;;;;5073216;28;19996;-84
2022/01/01 11:13:29;;;;;;;;;;;;;;;;;;5073002;28;20353;-85
2022/01/01 11:15:57;;;;;;;;;;;;;;;;;;5073219;28;20063;-84
2022/01/01 11:18:24;;;;;;;;;;;;;;;;;;5072975;28;20058;-84
2022/01/01 11:20:51;;;;;;;;;;;;;;;;;;5072980;28;20017;-85
2022/01/01 11:23:18;;;;;;;;;;;;;;;;;;5072966;28;19972;-85
2022/01/01 11:25:45;;;;;;;;;;;;;;;;;;5072787;28;19964;-85
2022/01/01 11:28:12;;;;;;;;;;;;;;;;;;5072940;28;20338;-85
2022/01/01 11:30:39;;;;;;;;;;;;;;;;;;5073003;28;20309;-85
2022/01/01 11:33:06;;;;;;;;;;;;;;;;;;5072909;28;19996;-85
2022/01/01 11:35:34;;;;;;;;;;;;;;;;;;5073521;28;19957;-85
2022/01/01 11:38:01;;;;;;;;;;;;;;;;;;5076444;28;20030;-85
2022/01/01 11:40:28;;;;;;;;;;;;;;;;;;5076350;28;19997;-85
2022/01/01 11:42:55;;;;;;;;;;;;;;;;;;5076589;28;19958;-85
2022/01/01 11:45:22;;;;;;;;;;;;;;;;;;5076184;28;19959;-85
2022/01/01 11:47:49;;;;;;;;;;;;;;;;;;5074228;28;19971;-84
2022/01/01 11:50:15;;;;;;;;;;;;;;;;;;5075928;28;20006;-85
2022/01/01 11:52:44;;;;;;;;;;;;;;;;;;5075346;28;20146;-85
2022/01/01 11:55:11;;;;;;;;;;;;;;;;;;5074006;28;19928;-85
2022/01/01 11:57:39;;;;;;;;;;;;;;;;;;5075009;28;20050;-85
2022/01/01 12:00:06;;;;;;;;;;;;;;;;;;5075838;28;20056;-85
2022/01/01 12:02:33;;;;;;;;;;;;;;;;;;5078760;28;20489;-87
2022/01/01 12:05:00;;;;;;;;;;;;;;;;;;5078134;28;19991;-87
2022/01/01 12:07:27;;;;;;;;;;;;;;;;;;5077532;28;20055;-87
2022/01/01 12:09:54;;;;;;;;;;;;;;;;;;5080924;28;20009;-87
2022/01/01 12:12:21;;;;;;;;;;;;;;;;;;5078311;28;19992;-86
2022/01/01 12:14:48;;;;;;;;;;;;;;;;;;5076138;28;20423;-86
2022/01/01 12:17:15;;;;;;;;;;;;;;;;;;5076006;28;20173;-85
2022/01/01 12:19:42;;;;;;;;;;;;;;;;;;5075326;28;19987;-85
2022/01/01 12:22:09;;;;;;;;;;;;;;;;;;5075819;28;19969;-85
2022/01/01 12:24:36;;;;;;;;;;;;;;;;;;5075482;28;19924;-84
2022/01/01 12:27:03;;;;;;;;;;;;;;;;;;5075564;28;20325;-84
2022/01/01 12:29:30;;;;;;;;;;;;;;;;;;5075838;28;20063;-84
2022/01/01 12:31:57;;;;;;;;;;;;;;;;;;5075451;28;19994;-85
2022/01/01 12:34:24;;;;;;;;;;;;;;;;;;5075709;28;20404;-85
2022/01/01 12:36:51;;;;;;;;;;;;;;;;;;5075178;28;20003;-84
2022/01/01 12:39:18;;;;;;;;;;;;;;;;;;5075274;28;20029;-85
2022/01/01 12:41:45;;;;;;;;;;;;;;;;;;5075714;28;20404;-85
2022/01/01 12:44:12;;;;;;;;;;;;;;;;;;5075472;28;19956;-85
2022/01/01 12:46:39;;;;;;;;;;;;;;;;;;5075239;28;19967;-85
2022/01/01 12:49:06;;;;;;;;;;;;;;;;;;5074985;28;20030;-83
2022/01/01 12:51:36;;;;;;;;;;;;;;;;;;5074779;28;20437;-84
2022/01/01 12:54:03;;;;;;;;;;;;;;;;;;5074980;28;19972;-84
2022/01/01 12:56:30;;;;;;;;;;;;;;;;;;5075136;28;20055;-84
2022/01/01 12:58:57;;;;;;;;;;;;;;;;;;5074607;28;20081;-85
2022/01/01 13:01:24;;;;;;;;;;;;;;;;;;5074991;28;20048;-86
2022/01/01 13:03:51;;;;;;;;;;;;;;;;;;5074967;28;20070;-84
2022/01/01 13:06:18;;;;;;;;;;;;;;;;;;5074001;28;19966;-85
2022/01/01 13:08:45;;;;;;;;;;;;;;;;;;5074350;28;19990;-85
2022/01/01 13:11:13;;;;;;;;;;;;;;;;;;5074916;28;20048;-84
2022/01/01 13:13:40;;;;;;;;;;;;;;;;;;5074867;28;19964;-85
2022/01/01 13:16:07;;;;;;;;;;;;;;;;;;5074468;28;19990;-85
2022/01/01 13:18:34;;;;;;;;;;;;;;;;;;5074461;28;20056;-85
2022/01/01 13:21:01;;;;;;;;;;;;;;;;;;5074812;28;20431;-85
2022/01/01 13:23:28;;;;;;;;;;;;;;;;;;5074586;28;19971;-85
2022/01/01 13:25:55;;;;;;;;;;;;;;;;;;5074320;28;19970;-85
2022/01/01 13:28:22;;;;;;;;;;;;;;;;;;5074843;28;20060;-85
2022/01/01 13:30:49;;;;;;;;;;;;;;;;;;5074131;28;20440;-85
2022/01/01 13:33:16;;;;;;;;;;;;;;;;;;5074281;28;19990;-85
2022/01/01 13:35:43;;;;;;;;;;;;;;;;;;5074553;28;19960;-85
2022/01/01 13:38:10;;;;;;;;;;;;;;;;;;5074367;28;20059;-86
2022/01/01 13:40:37;;;;;;;;;;;;;;;;;;5074594;28;20037;-85
2022/01/01 13:43:04;;;;;;;;;;;;;;;;;;5074430;28;20046;-85
2022/01/01 13:45:31;;;;;;;;;;;;;;;;;;5074415;28;20077;-85
2022/01/01 13:48:04;;;;;;;;;;;;;;;;;;5074086;28;20074;-85
2022/01/01 13:50:31;;;;;;;;;;;;;;;;;;5073945;28;20365;-85
2022/01/01 13:53:04;;;;;;;;;;;;;;;;;;5074574;28;20003;-85
2022/01/01 13:55:32;;;;;;;;;;;;;;;;;;5074086;28;19978;-85
2022/01/01 13:57:59;;;;;;;;;;;;;;;;;;5073620;28;19961;-85
2022/01/01 14:00:26;;;;;;;;;;;;;;;;;;5073394;28;19965;-85
2022/01/01 14:02:53;;;;;;;;;;;;;;;;;;5073764;28;20020;-85
2022/01/01 14:05:22;;;;;;;;;;;;;;;;;;5074005;28;20030;-85
2022/01/01 14:07:49;;;;;;;;;;;;;;;;;;5073872;28;20041;-85
2022/01/01 14:10:16;;;;;;;;;;;;;;;;;;5073635;28;20063;-84
2022/01/01 14:12:43;;;;;;;;;;;;;;;;;;5073656;28;19966;-85
2022/01/01 14:15:10;;;;;;;;;;;;;;;;;;5073404;28;20012;-85
2022/01/01 14:17:37;;;;;;;;;;;;;;;;;;5073330;28;20378;-85
2022/01/01 14:20:04;;;;;;;;;;;;;;;;;;5073647;28;19984;-85
2022/01/01 14:22:31;;;;;;;;;;;;;;;;;;5073546;28;20062;-85
2022/01/01 14:24:58;;;;;;;;;;;;;;;;;;5073870;28;20389;-84
2022/01/01 14:27:25;;;;;;;;;;;;;;;;;;5073657;28;20048;-84
2022/01/01 14:29:52;;;;;;;;;;;;;;;;;;5073219;28;20015;-83
2022/01/01 14:32:19;;;;;;;;;;;;;;;;;;5073830;28;20473;-84
2022/01/01 14:34:47;;;;;;;;;;;;;;;;;;5073673;28;20056;-84
2022/01/01 14:37:14;;;;;;;;;;;;;;;;;;5073456;28;19995;-84
2022/01/01 14:39:41;;;;;;;;;;;;;;;;;;5073201;28;20067;-83
2022/01/01 14:42:08;;;;;;;;;;;;;;;;;;5073445;28;20391;-83
2022/01/01 14:44:35;;;;;;;;;;;;;;;;;;5073059;28;20026;-84
2022/01/01 14:47:02;;;;;;;;;;;;;;;;;;5073348;28;20350;-84
2022/01/01 14:49:29;;;;;;;;;;;;;;;;;;5073298;28;20003;-84
2022/01/01 14:51:57;;;;;;;;;;;;;;;;;;5073296;28;19967;-84
2022/01/01 14:54:24;;;;;;;;;;;;;;;;;;5073661;28;19962;-85
2022/01/01 14:56:51;;;;;;;;;;;;;;;;;;5073328;28;20413;-84
2022/01/01 14:59:18;;;;;;;;;;;;;;;;;;5072986;28;20009;-84
2022/01/01 15:01:49;;;;;;;;;;;;;;;;;;5073522;28;20063;-85
2022/01/01 15:04:16;;;;;;;;;;;;;;;;;;5073568;28;19965;-84
2022/01/01 15:06:43;;;;;;;;;;;;;;;;;;5073075;28;20387;-84
2022/01/01 15:09:10;;;;;;;;;;;;;;;;;;5073414;28;20019;-85
2022/01/01 15:11:37;;;;;;;;;;;;;;;;;;5076703;28;20065;-84
2022/01/01 15:14:04;;;;;;;;;;;;;;;;;;5076978;28;20080;-84
2022/01/01 15:16:31;;;;;;;;;;;;;;;;;;5076879;28;20011;-85
2022/01/01 15:18:58;;;;;;;;;;;;;;;;;;5076840;28;20078;-85
2022/01/01 15:21:25;;;;;;;;;;;;;;;;;;5076827;28;20054;-85
2022/01/01 15:23:52;;;;;;;;;;;;;;;;;;5076620;28;20014;-84
2022/01/01 15:26:19;;;;;;;;;;;;;;;;;;5076679;28;20062;-85
2022/01/01 15:28:46;;;;;;;;;;;;;;;;;;5076468;28;20047;-85
2022/01/01 15:31:23;;;;;;;;;;;;;;;;;;5076409;28;19997;-85
2022/01/01 15:33:50;;;;;;;;;;;;;;;;;;5076905;28;20002;-84
2022/01/01 15:36:23;;;;;;;;;;;;;;;;;;5076873;28;19961;-84
2022/01/01 15:38:57;;;;;;;;;;;;;;;;;;5076449;28;20013;-84
2022/01/01 15:41:41;;;;;;;;;;;;;;;;;;5076704;28;19997;-84
2022/01/01 15:44:08;;;;;;;;;;;;;;;;;;5076330;28;19968;-85
2022/01/01 15:46:35;;;;;;;;;;;;;;;;;;5075991;28;20505;-83
2022/01/01 15:49:02;;;;;;;;;;;;;;;;;;5075984;28;19981;-83
2022/01/01 15:51:29;;;;;;;;;;;;;;;;;;5076270;28;19967;-83
2022/01/01 15:53:56;;;;;;;;;;;;;;;;;;5075895;28;19967;-84
2022/01/01 15:56:23;;;;;;;;;;;;;;;;;;5075787;28;20402;-84
2022/01/01 15:58:50;;;;;;;;;;;;;;;;;;5076117;28;19968;-84
2022/01/01 16:01:17;;;;;;;;;;;;;;;;;;5076037;28;20052;-84
2022/01/01 16:03:44;;;;;;;;;;;;;;;;;;5075958;28;20398;-84
2022/01/01 16:06:11;;;;;;;;;;;;;;;;;;5075999;28;20046;-83
2022/01/01 16:08:39;;;;;;;;;;;;;;;;;;5075838;28;20068;-83
2022/01/01 16:11:06;;;;;;;;;;;;;;;;;;5075859;28;19975;-83
2022/01/01 16:13:33;;;;;;;;;;;;;;;;;;5075614;28;20513;-83
2022/01/01 16:16:00;;;;;;;;;;;;;;;;;;5075653;28;19966;-83
2022/01/01 16:18:27;;;;;;;;;;;;;;;;;;5075491;28;20140;-83
2022/01/01 16:20:54;;;;;;;;;;;;;;;;;;5075435;28;20403;-84
2022/01/01 16:23:21;;;;;;;;;;;;;;;;;;5075089;28;19963;-83
2022/01/01 16:25:48;;;;;;;;;;;;;;;;;;5075409;28;20084;-83
2022/01/01 16:28:15;;;;;;;;;;;;;;;;;;5075450;28;20379;-83
2022/01/01 16:30:42;;;;;;;;;;;;;;;;;;5075367;28;20060;-83
2022/01/01 16:33:09;;;;;;;;;;;;;;;;;;5074369;28;19980;-83
2022/01/01 16:35:36;;;;;;;;;;;;;;;;;;5074385;28;20392;-83
2022/01/01 16:38:03;;;;;;;;;;;;;;;;;;5074475;28;20003;-83
2022/01/01 16:40:30;;;;;;;;;;;;;;;;;;5074754;28;19981;-83
2022/01/01 16:42:57;;;;;;;;;;;;;;;;;;5074807;28;20004;-84
2022/01/01 16:45:24;;;;;;;;;;;;;;;;;;5074865;28;20040;-84
2022/01/01 16:47:51;;;;;;;;;;;;;;;;;;5074966;28;20028;-83
2022/01/01 16:50:20;;;;;;;;;;;;;;;;;;5075027;28;19972;-84